Flight Track Log - Related Links

Times and Time Zones

All times are in EDT time to prevent confusion due to time zone crossing. See the CHQ3061 flight status page for this flight to view local times or setup timezone preferences in your user account.

Time Position Orientation Groundspeed Altitude Reporting Facility
EDT Latitude Longitude Course Direction KTS MPH feet Rate Location/Type
Tue 08:12:15 AM 38.8492 -77.0706 25° Northeast  Level FlightAware Approximate
Tue 08:13:14 AM 38.8833 -77.0500 311° West 153 176 1,900  Level Potomac TRACON
Tue 08:14:14 AM 38.9167 -77.1000 311° West 221 254 4,600 2,650 Climbing Potomac TRACON
Tue 08:15:14 AM 38.9500 -77.1500 311° West 208 239 7,200 2,765 Climbing Potomac TRACON
Tue 08:16:09 AM 38.9833 -77.2000 284° West 201 231 9,900 1,930 Climbing Potomac TRACON
Tue 08:17:09 AM 39.0000 -77.2833 262° West 251 289 10,900 1,144 Climbing Potomac TRACON
Tue 08:19:23 AM 38.9753 -77.5033 268° West 313 360 13,600 1,701 Climbing Washington Center
Tue 08:20:23 AM 38.9711 -77.6261 279° West 319 367 16,400 1,780 Climbing Washington Center
Tue 08:21:21 AM 38.9839 -77.7333 252° West 316 364 17,100 756 Climbing Washington Center
Tue 08:22:22 AM 38.9569 -77.8392 252° West 328 377 17,900 787 Climbing Washington Center
Tue 08:23:23 AM 38.9233 -77.9717 253° West 342 394 18,700 893 Climbing Washington Center
Tue 08:24:23 AM 38.8936 -78.0933 252° West 353 406 19,700 1,017 Climbing Washington Center
Tue 08:25:21 AM 38.8619 -78.2150 268° West 363 418 20,700 1,008 Climbing Washington Center
Tue 08:26:22 AM 38.8589 -78.3481 267° West 363 418 21,700 992 Climbing Washington Center
Tue 08:27:22 AM 38.8536 -78.4811 268° West 368 423 22,700 893 Climbing Washington Center
Tue 08:28:23 AM 38.8506 -78.6064 268° West 382 440 23,500 908 Climbing Washington Center
Tue 08:29:21 AM 38.8469 -78.7450 268° West 382 440 24,500 915 Climbing Washington Center
Tue 08:30:21 AM 38.8433 -78.8806 268° West 382 440 25,300 843 Climbing Washington Center
Tue 08:31:22 AM 38.8397 -79.0164 268° West 382 440 26,200 885 Climbing Washington Center
Tue 08:32:23 AM 38.8356 -79.1547 252° West 382 440 27,100 1,008 Climbing Washington Center
Tue 08:33:21 AM 38.8047 -79.2758 231° Southwest 382 440 28,200 958 Climbing Washington Center
Tue 08:34:22 AM 38.7347 -79.3869 231° Southwest 358 412 29,000 689 Climbing Washington Center
Tue 08:35:23 AM 38.6711 -79.4872 256° West 364 419 29,600 655 Climbing Washington Center
Tue 08:36:21 AM 38.6483 -79.6083 255° West 369 425 30,300 712 Climbing Washington Center
Tue 08:37:21 AM 38.6208 -79.7425 255° West 383 441 31,000 694 Climbing Washington Center
Tue 08:38:22 AM 38.5931 -79.8789 256° West 391 450 31,700 496 Climbing Washington Center
Tue 08:39:22 AM 38.5647 -80.0286 256° West 402 463 32,000 108 Climbing Washington Center
Tue 08:41:08 AM 38.5164 -80.2736 255° West 417 480 32,000  Level Indianapolis Center
Tue 08:42:08 AM 38.4889 -80.4075 254° West 412 474 32,000  Level Indianapolis Center
Tue 08:43:08 AM 38.4608 -80.5361 256° West 399 459 32,000 -550 Level Indianapolis Center
Tue 08:44:08 AM 38.4350 -80.6697 257° West 393 452 30,900 -1,350 Descending Indianapolis Center
Tue 08:45:08 AM 38.4092 -80.8111 262° West 400 460 29,300 -1,450 Descending Indianapolis Center
Tue 08:46:08 AM 38.3939 -80.9550 270° West 405 466 28,000 -650 Descending Indianapolis Center
Tue 08:47:08 AM 38.3947 -81.1006 270° West 410 472 28,000  Level Indianapolis Center
Tue 08:48:08 AM 38.3936 -81.2492 269° West 420 483 28,000  Level Indianapolis Center
Tue 08:49:08 AM 38.3922 -81.3975 269° West 420 483 28,000  Level Indianapolis Center
Tue 08:50:08 AM 38.3906 -81.5433 270° West 420 483 28,000  Level Indianapolis Center
Tue 08:51:08 AM 38.3908 -81.6731 270° West 420 483 28,000  Level Indianapolis Center
Tue 08:52:08 AM 38.3908 -81.8189 269° West 420 483 28,000  Level Indianapolis Center
Tue 08:53:08 AM 38.3889 -81.9647 270° West 415 478 28,000  Level Indianapolis Center
Tue 08:54:08 AM 38.3886 -82.1078 270° West 415 478 28,000  Level Indianapolis Center
Tue 08:55:08 AM 38.3883 -82.2561 271° West 420 483 28,000  Level Indianapolis Center
Tue 08:56:08 AM 38.3897 -82.4017 270° West 420 483 28,000  Level Indianapolis Center
Tue 08:57:08 AM 38.3892 -82.5633 269° West 420 483 28,000  Level Indianapolis Center
Tue 08:58:08 AM 38.3881 -82.7064 269° West 412 474 28,000  Level Indianapolis Center
Tue 08:59:08 AM 38.3869 -82.8469 270° West 405 466 28,000  Level Indianapolis Center
Tue 09:00:08 AM 38.3878 -82.9872 269° West 400 460 28,000  Level Indianapolis Center
Tue 09:01:08 AM 38.3864 -83.1278 267° West 400 460 28,000 -750 Level Indianapolis Center
Tue 09:02:08 AM 38.3806 -83.2683 267° West 400 460 26,500 -1,500 Descending Indianapolis Center
Tue 09:03:08 AM 38.3744 -83.4061 266° West 400 460 25,000 -1,250 Descending Indianapolis Center
Tue 09:04:08 AM 38.3661 -83.5464 268° West 400 460 24,000 -500 Descending Indianapolis Center
Tue 09:05:08 AM 38.3619 -83.6814 267° West 400 460 24,000 -100 Level Indianapolis Center
Tue 09:06:08 AM 38.3575 -83.8086 268° West 385 443 23,800 -850 Descending Indianapolis Center
Tue 09:07:08 AM 38.3531 -83.9411 267° West 380 437 22,300 -1,500 Descending Indianapolis Center
Tue 09:08:08 AM 38.3483 -84.0761 270° West 380 437 20,800 -1,150 Descending Indianapolis Center
Tue 09:09:08 AM 38.3478 -84.2111 268° West 386 444 20,000 -400 Descending Indianapolis Center
Tue 09:10:08 AM 38.3447 -84.3408 270° West 380 437 20,000 -50 Level Indianapolis Center
Tue 09:11:08 AM 38.3439 -84.4678 268° West 374 430 19,900 -950 Descending Indianapolis Center
Tue 09:12:08 AM 38.3408 -84.5922 265° West 361 415 18,100 -1,700 Descending Indianapolis Center
Tue 09:13:08 AM 38.3311 -84.7244 265° West 361 415 16,500 -2,050 Descending Indianapolis Center
Tue 09:14:08 AM 38.3239 -84.8383 264° West 353 406 14,000 -2,400 Descending Indianapolis Center
Tue 09:15:08 AM 38.3142 -84.9572 275° West 345 397 11,700 -1,500 Descending Indianapolis Center
Tue 09:16:08 AM 38.3211 -85.0686 275° West 339 390 11,000 -500 Descending Indianapolis Center
Tue 09:17:08 AM 38.3300 -85.1878 280° West 339 390 10,700 -700 Descending Indianapolis Center
Tue 09:18:08 AM 38.3431 -85.2836 274° West 312 359 9,600 -1,374 Descending Indianapolis Center
Tue 09:19:19 AM 38.3483 -85.3828 287° West 244 281 7,700 -1,405 Descending FAA TRACON SMA TRACON (SMA)
Tue 09:19:59 AM 38.3608 -85.4344 295° West 225 259 7,000 -1,111 Descending FAA TRACON SMA TRACON (SMA)
Tue 09:20:40 AM 38.3781 -85.4822 296° West 211 243 6,200 -825 Descending FAA TRACON SMA TRACON (SMA)
Tue 09:21:19 AM 38.3942 -85.5236 298° West 212 244 5,900 -225 Descending FAA TRACON SMA TRACON (SMA)
Tue 09:22:00 AM 38.4133 -85.5689 298° West 209 241 5,900  Level FAA TRACON SMA TRACON (SMA)
Tue 09:22:39 AM 38.4300 -85.6086 295° West 183 211 5,900 -532 Level FAA TRACON SMA TRACON (SMA)
Tue 09:23:19 AM 38.4431 -85.6436 265° West 179 206 5,200 -1,275 Descending FAA TRACON SMA TRACON (SMA)
Tue 09:23:59 AM 38.4397 -85.6897 260° West 191 220 4,200 -963 Descending FAA TRACON SMA TRACON (SMA)
Tue 09:24:40 AM 38.4336 -85.7361 234° Southwest 191 220 3,900 -222 Descending FAA TRACON SMA TRACON (SMA)
Tue 09:25:20 AM 38.4136 -85.7714 212° Southwest 193 222 3,900  Level FAA TRACON SMA TRACON (SMA)
Tue 09:26:02 AM 38.3800 -85.7978 166° South 211 243 3,900 -76 Level FAA TRACON SMA TRACON (SMA)
Tue 09:26:39 AM 38.3464 -85.7872 160° South 203 234 3,800 -312 Descending FAA TRACON SMA TRACON (SMA)
Tue 09:27:19 AM 38.3153 -85.7731 160° South 194 223 3,500 -450 Descending FAA TRACON SMA TRACON (SMA)

Login

Don't have an account? Register now (free) for customized features, flight alerts, and more!